createdAt,value
2023-05-07T00:00:49.588Z,99.90
2023-05-07T00:03:16.692Z,99.90
2023-05-07T00:05:43.709Z,99.90
2023-05-07T00:08:10.858Z,99.90
2023-05-07T00:10:37.803Z,99.90
2023-05-07T00:13:04.770Z,99.90
2023-05-07T00:15:31.844Z,99.90
2023-05-07T00:18:00.532Z,99.90
2023-05-07T00:20:28.193Z,99.90
2023-05-07T00:22:55.457Z,99.90
2023-05-07T00:25:22.508Z,99.90
2023-05-07T00:27:49.558Z,99.90
2023-05-07T00:30:17.046Z,99.90
2023-05-07T00:32:46.557Z,99.90
2023-05-07T00:35:13.794Z,99.90
2023-05-07T00:37:40.743Z,99.90
2023-05-07T00:40:09.732Z,99.90
2023-05-07T00:42:37.862Z,99.90
2023-05-07T00:45:05.362Z,99.90
2023-05-07T00:47:32.701Z,99.90
2023-05-07T00:50:00.641Z,99.90
2023-05-07T00:52:28.768Z,99.90
2023-05-07T00:54:56.192Z,99.90
2023-05-07T00:57:25.128Z,99.90
2023-05-07T00:59:52.958Z,99.90
2023-05-07T01:02:20.004Z,99.90
2023-05-07T01:04:46.982Z,99.90
2023-05-07T01:07:15.458Z,99.90
2023-05-07T01:09:42.416Z,99.90
2023-05-07T01:12:10.223Z,99.90
2023-05-07T01:14:37.484Z,99.90
2023-05-07T01:17:04.642Z,99.90
2023-05-07T01:19:32.368Z,99.90
2023-05-07T01:22:09.619Z,99.90
2023-05-07T01:24:47.197Z,99.90
2023-05-07T01:27:16.145Z,99.90
2023-05-07T01:29:43.764Z,99.90
2023-05-07T01:32:12.746Z,99.90
2023-05-07T01:34:40.935Z,99.90
2023-05-07T01:37:08.002Z,99.90
2023-05-07T01:39:34.969Z,99.90
2023-05-07T01:42:02.691Z,99.90
2023-05-07T01:44:29.917Z,99.90
2023-05-07T01:46:58.227Z,99.90
2023-05-07T01:49:25.427Z,99.90
2023-05-07T01:51:53.216Z,99.90
2023-05-07T01:54:21.660Z,99.90
2023-05-07T01:56:49.988Z,99.90
2023-05-07T01:59:17.331Z,99.90
2023-05-07T02:01:44.454Z,99.90
2023-05-07T02:04:12.487Z,99.90
2023-05-07T02:06:39.700Z,99.90
2023-05-07T02:09:10.006Z,99.90
2023-05-07T02:11:38.272Z,99.90
2023-05-07T02:14:05.926Z,99.90
2023-05-07T02:16:32.967Z,99.90
2023-05-07T02:19:00.124Z,99.90
2023-05-07T02:21:29.394Z,99.90
2023-05-07T02:23:57.476Z,99.90
2023-05-07T02:26:24.638Z,99.90
2023-05-07T02:28:51.875Z,99.90
2023-05-07T02:31:19.365Z,99.90
2023-05-07T02:33:47.914Z,99.90
2023-05-07T02:36:15.784Z,99.90
2023-05-07T02:38:57.804Z,99.90
2023-05-07T02:41:24.991Z,99.90
2023-05-07T02:43:51.968Z,99.90
2023-05-07T02:46:19.576Z,99.90
2023-05-07T02:48:52.140Z,99.90
2023-05-07T02:51:24.146Z,99.90
2023-05-07T02:53:54.057Z,99.90
2023-05-07T02:56:22.681Z,99.90
2023-05-07T02:58:49.657Z,99.90
2023-05-07T03:01:18.282Z,99.90
2023-05-07T03:03:52.086Z,99.90
2023-05-07T03:06:21.205Z,99.90
2023-05-07T03:08:48.239Z,99.90
2023-05-07T03:11:15.711Z,99.90
2023-05-07T03:13:42.620Z,99.90
2023-05-07T03:16:09.701Z,99.90
2023-05-07T03:18:36.763Z,99.90
2023-05-07T03:21:03.932Z,99.90
2023-05-07T03:23:31.170Z,99.90
2023-05-07T03:25:58.132Z,99.90
2023-05-07T03:28:25.040Z,99.90
2023-05-07T03:30:57.569Z,99.90
2023-05-07T03:33:24.755Z,99.90
2023-05-07T03:35:51.774Z,99.90
2023-05-07T03:38:23.296Z,99.90
2023-05-07T03:40:50.749Z,99.90
2023-05-07T03:43:18.496Z,99.90
2023-05-07T03:45:50.620Z,99.90
2023-05-07T03:48:23.236Z,99.90
2023-05-07T03:50:53.324Z,99.90
2023-05-07T03:53:21.614Z,99.90
2023-05-07T03:55:48.923Z,99.90
2023-05-07T03:58:16.493Z,99.90
2023-05-07T04:00:43.725Z,99.90
2023-05-07T04:03:20.059Z,99.90
2023-05-07T04:05:47.928Z,99.90
2023-05-07T04:08:15.272Z,99.90
2023-05-07T04:10:46.970Z,99.90
2023-05-07T04:13:14.699Z,99.90
2023-05-07T04:15:42.689Z,99.90
2023-05-07T04:18:12.149Z,99.90
2023-05-07T04:20:41.282Z,99.90
2023-05-07T04:23:12.580Z,99.90
2023-05-07T04:25:40.266Z,99.90
2023-05-07T04:28:21.772Z,99.90
2023-05-07T04:30:49.141Z,99.90
2023-05-07T04:33:19.556Z,99.90
2023-05-07T04:35:47.834Z,99.90
2023-05-07T04:38:15.815Z,99.90
2023-05-07T04:40:43.457Z,99.90
2023-05-07T04:43:14.328Z,99.90
2023-05-07T04:45:46.833Z,99.90
2023-05-07T04:48:15.750Z,99.90
2023-05-07T04:50:42.835Z,99.90
2023-05-07T04:53:11.347Z,99.90
2023-05-07T04:55:38.513Z,99.90
2023-05-07T04:58:08.668Z,99.90
2023-05-07T05:00:37.876Z,99.90
2023-05-07T05:03:10.102Z,99.90
2023-05-07T05:05:39.305Z,99.90
2023-05-07T05:08:06.887Z,99.90
2023-05-07T05:10:39.666Z,99.90
2023-05-07T05:13:07.578Z,99.90
2023-05-07T05:15:35.704Z,99.90
2023-05-07T05:18:04.207Z,99.90
2023-05-07T05:20:31.794Z,99.90
2023-05-07T05:22:59.151Z,99.90
2023-05-07T05:25:26.332Z,99.90
2023-05-07T05:27:53.326Z,99.90
2023-05-07T05:30:21.299Z,99.90
2023-05-07T05:32:49.675Z,99.90
2023-05-07T05:35:16.979Z,99.90
2023-05-07T05:37:44.847Z,99.90
2023-05-07T05:40:13.479Z,99.90
2023-05-07T05:42:40.719Z,99.90
2023-05-07T05:45:09.339Z,99.90
2023-05-07T05:47:36.402Z,99.90
2023-05-07T05:50:03.625Z,99.90
2023-05-07T05:52:30.827Z,99.90
2023-05-07T05:54:58.394Z,99.90
2023-05-07T05:57:28.619Z,99.90
2023-05-07T05:59:56.828Z,99.90
2023-05-07T06:02:25.000Z,99.90
2023-05-07T06:04:52.276Z,99.90
2023-05-07T06:07:21.309Z,99.90
2023-05-07T06:09:48.810Z,99.90
2023-05-07T06:12:16.653Z,99.90
2023-05-07T06:14:46.522Z,99.90
2023-05-07T06:17:13.595Z,99.90
2023-05-07T06:19:40.642Z,99.90
2023-05-07T06:22:10.202Z,99.90
2023-05-07T06:24:37.222Z,99.90
2023-05-07T06:27:06.605Z,99.90
2023-05-07T06:29:34.478Z,99.90
2023-05-07T06:32:10.885Z,99.90
2023-05-07T06:34:40.458Z,99.90
2023-05-07T06:37:09.676Z,99.90
2023-05-07T06:39:53.941Z,99.90
2023-05-07T06:42:21.019Z,99.90
2023-05-07T06:44:49.774Z,99.90
2023-05-07T06:47:18.467Z,99.90
2023-05-07T06:49:50.483Z,99.90
2023-05-07T06:52:19.601Z,99.90
2023-05-07T06:54:48.678Z,99.90
2023-05-07T06:57:17.717Z,99.90
2023-05-07T06:59:44.744Z,99.90
2023-05-07T07:02:12.901Z,99.90
2023-05-07T07:04:41.370Z,99.90
2023-05-07T07:07:11.052Z,99.90
2023-05-07T07:09:39.604Z,99.90
2023-05-07T07:12:08.315Z,99.90
2023-05-07T07:14:37.704Z,99.90
2023-05-07T07:17:06.254Z,99.90
2023-05-07T07:19:34.349Z,99.90
2023-05-07T07:22:03.569Z,99.90
2023-05-07T07:24:30.671Z,99.90
2023-05-07T07:27:01.652Z,99.90
2023-05-07T07:29:29.026Z,99.90
2023-05-07T07:31:56.466Z,99.90
2023-05-07T07:34:24.052Z,99.90
2023-05-07T07:36:51.497Z,99.90
2023-05-07T07:39:20.128Z,99.90
2023-05-07T07:41:50.861Z,99.90
2023-05-07T07:44:19.209Z,99.90
2023-05-07T07:46:51.868Z,99.90
2023-05-07T07:49:20.377Z,99.90
2023-05-07T07:51:48.106Z,99.90
2023-05-07T07:54:15.489Z,99.90
2023-05-07T07:56:42.644Z,99.90
2023-05-07T07:59:11.197Z,99.90
2023-05-07T08:01:40.879Z,99.90
2023-05-07T08:04:08.776Z,99.90
2023-05-07T08:06:39.349Z,99.90
2023-05-07T08:09:09.437Z,99.90
2023-05-07T08:11:37.365Z,99.90
2023-05-07T08:14:05.278Z,99.90
2023-05-07T08:16:32.655Z,99.90
2023-05-07T08:19:01.358Z,99.90
2023-05-07T08:21:28.502Z,99.90
2023-05-07T08:23:55.453Z,99.90
2023-05-07T08:26:22.484Z,99.90
2023-05-07T08:28:49.623Z,99.90
2023-05-07T08:31:17.043Z,99.90
2023-05-07T08:33:45.765Z,99.90
2023-05-07T08:36:12.782Z,99.90
2023-05-07T08:38:41.795Z,99.90
2023-05-07T08:41:11.432Z,99.90
2023-05-07T08:43:42.628Z,98.10
2023-05-07T08:46:12.465Z,97.60
2023-05-07T08:48:43.217Z,95.70
2023-05-07T08:51:14.685Z,96.60
2023-05-07T08:53:42.870Z,95.90
2023-05-07T08:56:13.438Z,96.50
2023-05-07T08:58:41.056Z,95.70
2023-05-07T09:01:10.801Z,96.20
2023-05-07T09:03:40.569Z,95.30
2023-05-07T09:06:07.839Z,93.10
2023-05-07T09:08:36.248Z,92.00
2023-05-07T09:11:06.311Z,89.60
2023-05-07T09:13:33.810Z,90.80
2023-05-07T09:16:13.302Z,92.00
2023-05-07T09:18:46.298Z,90.70
2023-05-07T09:21:18.743Z,89.70
2023-05-07T09:23:53.474Z,89.80
2023-05-07T09:26:23.802Z,87.00
2023-05-07T09:28:51.463Z,85.90
2023-05-07T09:31:21.084Z,85.70
2023-05-07T09:33:48.641Z,82.30
2023-05-07T09:36:20.108Z,80.90
2023-05-07T09:38:47.333Z,79.40
2023-05-07T09:41:15.727Z,83.30
2023-05-07T09:43:59.724Z,84.20
2023-05-07T09:46:33.523Z,85.20
2023-05-07T09:49:22.320Z,83.60
2023-05-07T09:51:53.621Z,82.30
2023-05-07T09:54:23.996Z,80.30
2023-05-07T09:56:57.152Z,79.40
2023-05-07T09:59:30.526Z,78.00
2023-05-07T10:02:04.873Z,74.90
2023-05-07T10:04:36.911Z,76.60
2023-05-07T10:07:06.642Z,72.90
2023-05-07T10:09:34.718Z,75.80
2023-05-07T10:12:02.274Z,75.90
2023-05-07T10:14:30.788Z,77.30
2023-05-07T10:16:58.743Z,76.70
2023-05-07T10:19:28.985Z,75.20
2023-05-07T10:22:03.974Z,73.60
2023-05-07T10:24:40.637Z,73.00
2023-05-07T10:27:16.977Z,69.60
2023-05-07T10:29:56.827Z,70.10
2023-05-07T10:32:52.643Z,71.60
2023-05-07T10:35:30.642Z,69.70
2023-05-07T10:37:58.883Z,73.10
2023-05-07T10:40:28.649Z,73.20
2023-05-07T10:43:08.604Z,73.00
2023-05-07T10:45:42.847Z,72.10
2023-05-07T10:51:24.591Z,71.30
2023-05-07T10:54:11.929Z,72.00
2023-05-07T10:56:44.986Z,73.40
2023-05-07T10:59:35.291Z,73.30
2023-05-07T11:02:18.293Z,70.00
2023-05-07T11:05:35.777Z,70.10
2023-05-07T11:08:24.756Z,67.80
2023-05-07T11:11:07.286Z,67.30
2023-05-07T11:13:52.530Z,68.20
2023-05-07T11:16:38.160Z,71.00
2023-05-07T11:19:53.597Z,70.00
2023-05-07T11:22:41.952Z,72.30
2023-05-07T11:25:26.685Z,71.20
2023-05-07T11:28:17.429Z,67.60
2023-05-07T11:30:51.623Z,66.60
2023-05-07T11:33:23.766Z,66.60
2023-05-07T11:35:54.847Z,64.40
2023-05-07T11:38:25.748Z,56.20
2023-05-07T11:41:01.683Z,46.30
2023-05-07T11:43:29.060Z,47.90
2023-05-07T11:45:56.202Z,44.10
2023-05-07T11:48:23.949Z,37.20
2023-05-07T11:51:00.472Z,34.70
2023-05-07T11:53:29.376Z,29.90
2023-05-07T11:55:59.448Z,27.30
2023-05-07T11:58:26.727Z,25.20
2023-05-07T12:00:55.222Z,26.30
2023-05-07T12:03:22.352Z,24.80
2023-05-07T12:05:49.721Z,26.80
2023-05-07T12:08:17.449Z,29.30
2023-05-07T12:10:45.579Z,26.60
2023-05-07T12:13:19.785Z,27.20
2023-05-07T12:15:46.762Z,26.80
2023-05-07T12:18:16.268Z,27.50
2023-05-07T12:20:44.142Z,27.00
2023-05-07T12:23:12.050Z,28.30
2023-05-07T12:25:49.975Z,26.70
2023-05-07T12:28:18.073Z,30.20
2023-05-07T12:30:46.139Z,28.80
2023-05-07T12:33:18.769Z,27.00
2023-05-07T12:35:45.667Z,28.00
2023-05-07T12:38:14.368Z,33.20
2023-05-07T12:40:51.934Z,32.00
2023-05-07T12:43:26.030Z,33.90
2023-05-07T12:45:56.037Z,34.00
2023-05-07T12:48:24.172Z,32.70
2023-05-07T12:50:52.308Z,29.40
2023-05-07T12:53:22.719Z,28.90
2023-05-07T12:55:51.530Z,27.00
2023-05-07T12:58:19.303Z,26.80
2023-05-07T13:00:49.683Z,26.00
2023-05-07T13:03:31.614Z,25.00
2023-05-07T13:06:04.618Z,21.00
2023-05-07T13:08:38.468Z,21.70
2023-05-07T13:11:06.471Z,22.30
2023-05-07T13:13:35.365Z,21.90
2023-05-07T13:16:03.494Z,20.00
2023-05-07T13:18:35.032Z,21.90
2023-05-07T13:21:02.790Z,18.60
2023-05-07T13:23:29.966Z,21.90
2023-05-07T13:25:57.253Z,19.30
2023-05-07T13:28:27.340Z,20.20
2023-05-07T13:30:56.102Z,21.90
2023-05-07T13:33:25.197Z,23.20
2023-05-07T13:35:52.214Z,23.70
2023-05-07T13:38:19.221Z,23.80
2023-05-07T13:40:46.505Z,25.00
2023-05-07T13:43:13.421Z,25.30
2023-05-07T13:45:42.917Z,25.90
2023-05-07T13:48:09.998Z,26.30
2023-05-07T13:50:36.991Z,25.80
2023-05-07T13:53:04.115Z,25.00
2023-05-07T13:55:31.309Z,23.80
2023-05-07T13:58:00.292Z,21.80
2023-05-07T14:00:28.122Z,24.10
2023-05-07T14:02:56.360Z,21.70
2023-05-07T14:05:24.338Z,23.60
2023-05-07T14:07:57.927Z,23.40
2023-05-07T14:10:25.701Z,23.50
2023-05-07T14:12:54.108Z,25.20
2023-05-07T14:15:21.402Z,25.20
2023-05-07T14:17:50.831Z,24.90
2023-05-07T14:20:18.211Z,25.40
2023-05-07T14:22:46.230Z,27.50
2023-05-07T14:25:14.208Z,26.60
2023-05-07T14:27:44.774Z,26.70
2023-05-07T14:30:12.471Z,25.90
2023-05-07T14:32:41.648Z,27.60
2023-05-07T14:35:09.582Z,25.60
2023-05-07T14:37:36.915Z,24.20
2023-05-07T14:40:04.302Z,25.90
2023-05-07T14:42:31.475Z,24.60
2023-05-07T14:44:58.519Z,25.80
2023-05-07T14:47:25.927Z,24.20
2023-05-07T14:49:54.096Z,23.30
2023-05-07T14:52:21.568Z,23.90
2023-05-07T14:54:50.127Z,24.60
2023-05-07T14:57:19.600Z,24.40
2023-05-07T14:59:48.648Z,24.10
2023-05-07T15:02:16.244Z,24.90
2023-05-07T15:04:47.127Z,25.70
2023-05-07T15:07:18.693Z,26.40
2023-05-07T15:09:46.395Z,25.90
2023-05-07T15:12:15.571Z,26.40
2023-05-07T15:14:42.556Z,26.30
2023-05-07T15:17:09.940Z,27.00
2023-05-07T15:19:36.966Z,29.00
2023-05-07T15:22:04.059Z,29.50
2023-05-07T15:24:31.801Z,29.70
2023-05-07T15:27:04.071Z,29.00
2023-05-07T15:29:31.491Z,29.50
2023-05-07T15:31:59.924Z,29.70
2023-05-07T15:34:27.554Z,29.20
2023-05-07T15:36:56.107Z,29.60
2023-05-07T15:39:25.085Z,29.20
2023-05-07T15:41:52.392Z,28.90
2023-05-07T15:44:19.373Z,29.70
2023-05-07T15:46:46.675Z,29.40
2023-05-07T15:49:13.663Z,28.20
2023-05-07T15:51:40.583Z,27.90
2023-05-07T15:54:07.744Z,28.20
2023-05-07T15:56:34.789Z,28.30
2023-05-07T15:59:02.671Z,27.90
2023-05-07T16:01:30.014Z,27.80
2023-05-07T16:03:57.307Z,26.80
2023-05-07T16:06:24.287Z,28.70
2023-05-07T16:08:51.297Z,28.60
2023-05-07T16:11:18.502Z,27.90
2023-05-07T16:13:45.530Z,27.50
2023-05-07T16:16:13.238Z,28.50
2023-05-07T16:18:40.216Z,29.10
2023-05-07T16:21:11.213Z,29.90
2023-05-07T16:23:38.174Z,29.90
2023-05-07T16:26:05.204Z,31.40
2023-05-07T16:28:32.188Z,38.40
2023-05-07T16:31:00.776Z,41.10
2023-05-07T16:33:27.943Z,39.00
2023-05-07T16:35:54.965Z,39.60
2023-05-07T16:38:22.015Z,38.40
2023-05-07T16:40:48.938Z,39.60
2023-05-07T16:43:16.097Z,37.20
2023-05-07T16:45:45.099Z,37.60
2023-05-07T16:48:12.370Z,37.10
2023-05-07T16:50:39.407Z,39.40
2023-05-07T16:53:07.341Z,38.60
2023-05-07T16:55:39.919Z,37.90
2023-05-07T16:58:07.875Z,37.40
2023-05-07T17:00:46.343Z,37.50
2023-05-07T17:03:16.827Z,37.90
2023-05-07T17:05:44.224Z,37.30
2023-05-07T17:08:11.154Z,37.10
2023-05-07T17:10:39.207Z,37.60
2023-05-07T17:13:06.756Z,36.80
2023-05-07T17:15:33.820Z,35.40
2023-05-07T17:18:01.035Z,35.50
2023-05-07T17:20:28.727Z,37.70
2023-05-07T17:22:55.803Z,34.70
2023-05-07T17:25:23.416Z,35.30
2023-05-07T17:27:50.725Z,34.40
2023-05-07T17:30:18.333Z,33.80
2023-05-07T17:32:45.646Z,33.70
2023-05-07T17:35:12.816Z,33.70
2023-05-07T17:37:40.887Z,34.70
2023-05-07T17:40:08.374Z,36.30
2023-05-07T17:42:35.487Z,37.80
2023-05-07T17:45:02.554Z,37.30
2023-05-07T17:47:29.763Z,38.40
2023-05-07T17:49:56.962Z,34.50
2023-05-07T17:52:26.617Z,33.70
2023-05-07T17:54:53.626Z,31.60
2023-05-07T17:57:23.348Z,32.00
2023-05-07T17:59:50.874Z,33.70
2023-05-07T18:02:17.965Z,33.60
2023-05-07T18:04:52.057Z,37.10
2023-05-07T18:07:19.012Z,42.70
2023-05-07T18:09:46.158Z,56.00
2023-05-07T18:12:13.496Z,60.30
2023-05-07T18:14:43.374Z,67.10
2023-05-07T18:17:13.287Z,72.10
2023-05-07T18:19:40.505Z,70.90
2023-05-07T18:22:07.622Z,69.20
2023-05-07T18:24:37.825Z,69.70
2023-05-07T18:27:06.233Z,70.10
2023-05-07T18:29:35.748Z,69.00
2023-05-07T18:32:02.919Z,68.70
2023-05-07T18:34:30.077Z,69.20
2023-05-07T18:36:58.237Z,70.60
2023-05-07T18:39:25.580Z,74.60
2023-05-07T18:41:55.993Z,74.70
2023-05-07T18:44:24.443Z,74.80
2023-05-07T18:46:51.411Z,76.30
2023-05-07T18:49:18.395Z,76.30
2023-05-07T18:51:45.775Z,74.60
2023-05-07T18:54:16.469Z,75.30
2023-05-07T18:56:43.799Z,74.40
2023-05-07T18:59:10.964Z,76.10
2023-05-07T19:01:39.304Z,77.00
2023-05-07T19:04:06.505Z,78.80
2023-05-07T19:06:33.827Z,81.20
2023-05-07T19:09:05.438Z,82.10
2023-05-07T19:11:33.822Z,82.10
2023-05-07T19:14:04.301Z,81.90
2023-05-07T19:16:34.530Z,82.10
2023-05-07T19:19:02.849Z,82.00
2023-05-07T19:21:30.212Z,83.70
2023-05-07T19:24:05.089Z,84.20
2023-05-07T19:26:32.095Z,85.30
2023-05-07T19:29:15.656Z,85.30
2023-05-07T19:31:45.082Z,87.00
2023-05-07T19:34:16.015Z,87.80
2023-05-07T19:36:43.423Z,88.90
2023-05-07T19:39:10.865Z,87.00
2023-05-07T19:41:37.887Z,87.40
2023-05-07T19:44:09.170Z,87.90
2023-05-07T19:46:37.262Z,89.30
2023-05-07T19:49:04.917Z,87.30
2023-05-07T19:51:33.320Z,88.00
2023-05-07T19:54:02.465Z,90.30
2023-05-07T19:56:29.731Z,90.50
2023-05-07T19:58:57.113Z,91.90
2023-05-07T20:01:24.156Z,92.60
2023-05-07T20:03:53.277Z,92.70
2023-05-07T20:06:23.667Z,92.20
2023-05-07T20:08:52.255Z,92.20
2023-05-07T20:11:19.982Z,91.60
2023-05-07T20:13:47.411Z,91.80
2023-05-07T20:16:15.535Z,93.30
2023-05-07T20:18:46.206Z,93.50
2023-05-07T20:21:14.448Z,93.00
2023-05-07T20:23:43.359Z,94.00
2023-05-07T20:26:10.388Z,95.20
2023-05-07T20:28:37.463Z,96.30
2023-05-07T20:31:05.166Z,95.80
2023-05-07T20:33:33.432Z,96.40
2023-05-07T20:36:01.933Z,96.90
2023-05-07T20:38:33.931Z,97.70
2023-05-07T20:41:09.993Z,97.70
2023-05-07T20:43:38.653Z,98.60
2023-05-07T20:46:07.705Z,99.80
2023-05-07T20:48:38.497Z,99.90
2023-05-07T20:51:05.509Z,99.90
2023-05-07T20:53:32.676Z,99.60
2023-05-07T20:55:59.754Z,99.90
2023-05-07T20:58:28.726Z,99.90
2023-05-07T21:00:57.961Z,99.90
2023-05-07T21:03:29.923Z,99.20
2023-05-07T21:05:59.909Z,99.60
2023-05-07T21:08:29.527Z,99.90
2023-05-07T21:10:58.091Z,99.90
2023-05-07T21:13:25.191Z,99.90
2023-05-07T21:15:52.664Z,99.90
2023-05-07T21:18:20.107Z,99.50
2023-05-07T21:20:47.277Z,98.70
2023-05-07T21:23:14.267Z,98.70
2023-05-07T21:25:41.719Z,98.60
2023-05-07T21:28:09.486Z,98.60
2023-05-07T21:30:37.242Z,99.40
2023-05-07T21:33:08.386Z,99.50
2023-05-07T21:35:37.361Z,99.90
2023-05-07T21:38:05.798Z,99.90
2023-05-07T21:40:35.700Z,99.90
2023-05-07T21:43:02.677Z,99.90
2023-05-07T21:45:29.669Z,99.90
2023-05-07T21:47:57.038Z,99.90
2023-05-07T21:50:24.098Z,99.90
2023-05-07T21:52:56.839Z,99.90
2023-05-07T21:55:24.022Z,99.90
2023-05-07T21:58:04.318Z,99.90
2023-05-07T22:00:33.616Z,99.80
2023-05-07T22:03:01.162Z,99.90
2023-05-07T22:05:28.714Z,99.90
2023-05-07T22:07:55.629Z,99.90
2023-05-07T22:10:23.073Z,99.90
2023-05-07T22:12:50.545Z,99.90
2023-05-07T22:15:17.978Z,99.60
2023-05-07T22:17:45.076Z,99.90
2023-05-07T22:20:12.641Z,99.90
2023-05-07T22:22:52.237Z,99.90
2023-05-07T22:25:20.938Z,99.90
2023-05-07T22:27:48.420Z,99.90
2023-05-07T22:30:15.800Z,99.90
2023-05-07T22:32:44.791Z,99.90
2023-05-07T22:35:12.117Z,99.90
2023-05-07T22:37:39.337Z,99.90
2023-05-07T22:40:07.067Z,99.90
2023-05-07T22:42:33.985Z,99.90
2023-05-07T22:45:00.911Z,99.90
2023-05-07T22:47:31.370Z,99.90
2023-05-07T22:49:58.492Z,99.90
2023-05-07T22:52:25.840Z,99.90
2023-05-07T22:54:52.893Z,99.90
2023-05-07T22:57:19.868Z,99.90
2023-05-07T22:59:46.951Z,99.90
2023-05-07T23:02:13.939Z,99.90
2023-05-07T23:04:41.125Z,99.90
2023-05-07T23:07:08.728Z,99.90
2023-05-07T23:09:35.784Z,99.90
2023-05-07T23:12:03.654Z,99.90
2023-05-07T23:14:30.882Z,99.90
2023-05-07T23:16:58.008Z,99.90
2023-05-07T23:19:25.118Z,99.90
2023-05-07T23:21:52.302Z,99.90
2023-05-07T23:24:20.709Z,99.90
2023-05-07T23:26:48.632Z,99.90
2023-05-07T23:29:15.666Z,99.90
2023-05-07T23:31:42.777Z,99.90
2023-05-07T23:34:12.507Z,99.90
2023-05-07T23:36:39.452Z,99.90
2023-05-07T23:39:06.524Z,99.90
2023-05-07T23:41:33.551Z,99.90
2023-05-07T23:44:00.505Z,99.90
2023-05-07T23:46:28.133Z,99.90
2023-05-07T23:48:55.065Z,99.90
2023-05-07T23:51:22.199Z,99.90
2023-05-07T23:53:49.161Z,99.90
2023-05-07T23:56:16.470Z,99.90
2023-05-07T23:58:43.485Z,99.90
